sensor_id;sensor_type;location;lat;lon;timestamp;P1;durP1;ratioP1;P2;durP2;ratioP2
7493;SDS011;3788;49.902;8.590;2023-02-04T00:02:25;5.50;;;2.20;;
7493;SDS011;3788;49.902;8.590;2023-02-04T00:04:52;4.83;;;2.60;;
7493;SDS011;3788;49.902;8.590;2023-02-04T00:07:18;6.77;;;2.50;;
7493;SDS011;3788;49.902;8.590;2023-02-04T00:09:45;7.43;;;2.60;;
7493;SDS011;3788;49.902;8.590;2023-02-04T00:12:15;6.53;;;2.90;;
7493;SDS011;3788;49.902;8.590;2023-02-04T00:14:42;6.80;;;2.47;;
7493;SDS011;3788;49.902;8.590;2023-02-04T00:17:09;6.83;;;3.30;;
7493;SDS011;3788;49.902;8.590;2023-02-04T00:19:37;8.50;;;2.10;;
7493;SDS011;3788;49.902;8.590;2023-02-04T00:22:04;4.50;;;2.00;;
7493;SDS011;3788;49.902;8.590;2023-02-04T00:24:32;6.83;;;2.10;;
7493;SDS011;3788;49.902;8.590;2023-02-04T00:26:58;7.43;;;2.23;;
7493;SDS011;3788;49.902;8.590;2023-02-04T00:29:27;4.33;;;2.20;;
7493;SDS011;3788;49.902;8.590;2023-02-04T00:31:54;7.13;;;2.53;;
7493;SDS011;3788;49.902;8.590;2023-02-04T00:34:21;6.27;;;2.73;;
7493;SDS011;3788;49.902;8.590;2023-02-04T00:36:48;5.13;;;2.03;;
7493;SDS011;3788;49.902;8.590;2023-02-04T00:39:14;8.67;;;2.83;;
7493;SDS011;3788;49.902;8.590;2023-02-04T00:41:41;5.30;;;2.10;;
7493;SDS011;3788;49.902;8.590;2023-02-04T00:44:09;5.47;;;2.07;;
7493;SDS011;3788;49.902;8.590;2023-02-04T00:46:39;3.57;;;2.23;;
7493;SDS011;3788;49.902;8.590;2023-02-04T00:49:06;5.87;;;2.00;;
7493;SDS011;3788;49.902;8.590;2023-02-04T00:51:34;4.00;;;1.77;;
7493;SDS011;3788;49.902;8.590;2023-02-04T00:54:02;9.43;;;2.50;;
7493;SDS011;3788;49.902;8.590;2023-02-04T00:56:28;7.63;;;2.50;;
7493;SDS011;3788;49.902;8.590;2023-02-04T00:58:55;4.83;;;2.17;;
7493;SDS011;3788;49.902;8.590;2023-02-04T01:01:22;8.50;;;2.50;;
7493;SDS011;3788;49.902;8.590;2023-02-04T01:03:50;6.33;;;2.80;;
7493;SDS011;3788;49.902;8.590;2023-02-04T01:06:17;5.63;;;2.20;;
7493;SDS011;3788;49.902;8.590;2023-02-04T01:08:44;6.93;;;2.67;;
7493;SDS011;3788;49.902;8.590;2023-02-04T01:11:10;7.97;;;2.80;;
7493;SDS011;3788;49.902;8.590;2023-02-04T01:13:37;7.53;;;3.13;;
7493;SDS011;3788;49.902;8.590;2023-02-04T01:16:04;7.23;;;2.77;;
7493;SDS011;3788;49.902;8.590;2023-02-04T01:18:31;7.53;;;2.70;;
7493;SDS011;3788;49.902;8.590;2023-02-04T01:20:59;4.97;;;2.70;;
7493;SDS011;3788;49.902;8.590;2023-02-04T01:23:26;6.93;;;2.80;;
7493;SDS011;3788;49.902;8.590;2023-02-04T01:25:52;7.37;;;2.93;;
7493;SDS011;3788;49.902;8.590;2023-02-04T01:28:19;5.03;;;2.60;;
7493;SDS011;3788;49.902;8.590;2023-02-04T01:30:46;8.03;;;2.43;;
7493;SDS011;3788;49.902;8.590;2023-02-04T01:33:13;4.40;;;2.50;;
7493;SDS011;3788;49.902;8.590;2023-02-04T01:35:39;7.00;;;2.70;;
7493;SDS011;3788;49.902;8.590;2023-02-04T01:38:07;6.27;;;2.20;;
7493;SDS011;3788;49.902;8.590;2023-02-04T01:40:34;6.20;;;2.87;;
7493;SDS011;3788;49.902;8.590;2023-02-04T01:43:01;6.20;;;3.60;;
7493;SDS011;3788;49.902;8.590;2023-02-04T01:45:28;6.50;;;2.40;;
7493;SDS011;3788;49.902;8.590;2023-02-04T01:47:58;3.60;;;2.20;;
7493;SDS011;3788;49.902;8.590;2023-02-04T01:50:25;2.43;;;1.97;;
7493;SDS011;3788;49.902;8.590;2023-02-04T01:52:52;4.90;;;2.40;;
7493;SDS011;3788;49.902;8.590;2023-02-04T01:55:21;3.40;;;2.40;;
7493;SDS011;3788;49.902;8.590;2023-02-04T01:57:51;4.20;;;2.20;;
7493;SDS011;3788;49.902;8.590;2023-02-04T02:00:21;4.40;;;2.33;;
7493;SDS011;3788;49.902;8.590;2023-02-04T02:02:50;4.27;;;2.10;;
7493;SDS011;3788;49.902;8.590;2023-02-04T02:05:19;5.37;;;2.93;;
7493;SDS011;3788;49.902;8.590;2023-02-04T02:07:48;4.17;;;2.10;;
7493;SDS011;3788;49.902;8.590;2023-02-04T02:10:16;6.60;;;2.33;;
7493;SDS011;3788;49.902;8.590;2023-02-04T02:12:45;5.43;;;2.63;;
7493;SDS011;3788;49.902;8.590;2023-02-04T02:15:12;8.53;;;3.03;;
7493;SDS011;3788;49.902;8.590;2023-02-04T02:17:40;7.40;;;2.53;;
7493;SDS011;3788;49.902;8.590;2023-02-04T02:20:10;6.10;;;3.13;;
7493;SDS011;3788;49.902;8.590;2023-02-04T02:22:39;4.87;;;2.70;;
7493;SDS011;3788;49.902;8.590;2023-02-04T02:25:13;8.40;;;2.43;;
7493;SDS011;3788;49.902;8.590;2023-02-04T02:27:40;13.90;;;3.47;;
7493;SDS011;3788;49.902;8.590;2023-02-04T02:30:09;6.47;;;2.73;;
7493;SDS011;3788;49.902;8.590;2023-02-04T02:32:37;5.73;;;2.50;;
7493;SDS011;3788;49.902;8.590;2023-02-04T02:35:04;3.10;;;1.90;;
7493;SDS011;3788;49.902;8.590;2023-02-04T02:37:32;5.33;;;2.30;;
7493;SDS011;3788;49.902;8.590;2023-02-04T02:39:59;7.07;;;2.63;;
7493;SDS011;3788;49.902;8.590;2023-02-04T02:42:27;5.93;;;2.40;;
7493;SDS011;3788;49.902;8.590;2023-02-04T02:44:55;5.83;;;2.60;;
7493;SDS011;3788;49.902;8.590;2023-02-04T02:47:22;5.40;;;2.37;;
7493;SDS011;3788;49.902;8.590;2023-02-04T02:49:51;6.97;;;2.80;;
7493;SDS011;3788;49.902;8.590;2023-02-04T02:52:19;3.13;;;2.30;;
7493;SDS011;3788;49.902;8.590;2023-02-04T02:54:47;4.70;;;2.37;;
7493;SDS011;3788;49.902;8.590;2023-02-04T02:57:14;5.83;;;2.13;;
7493;SDS011;3788;49.902;8.590;2023-02-04T02:59:45;4.93;;;2.30;;
7493;SDS011;3788;49.902;8.590;2023-02-04T03:02:13;3.27;;;2.13;;
7493;SDS011;3788;49.902;8.590;2023-02-04T03:04:42;4.17;;;2.00;;
7493;SDS011;3788;49.902;8.590;2023-02-04T03:07:11;4.87;;;2.20;;
7493;SDS011;3788;49.902;8.590;2023-02-04T03:09:39;4.93;;;2.30;;
7493;SDS011;3788;49.902;8.590;2023-02-04T03:12:06;6.73;;;2.40;;
7493;SDS011;3788;49.902;8.590;2023-02-04T03:14:32;7.97;;;2.37;;
7493;SDS011;3788;49.902;8.590;2023-02-04T03:17:01;6.27;;;2.43;;
7493;SDS011;3788;49.902;8.590;2023-02-04T03:19:30;4.93;;;2.70;;
7493;SDS011;3788;49.902;8.590;2023-02-04T03:22:00;7.87;;;2.83;;
7493;SDS011;3788;49.902;8.590;2023-02-04T03:24:28;6.30;;;2.50;;
7493;SDS011;3788;49.902;8.590;2023-02-04T03:26:55;9.87;;;3.03;;
7493;SDS011;3788;49.902;8.590;2023-02-04T03:29:22;8.53;;;3.20;;
7493;SDS011;3788;49.902;8.590;2023-02-04T03:31:48;8.03;;;3.00;;
7493;SDS011;3788;49.902;8.590;2023-02-04T03:34:16;10.43;;;3.53;;
7493;SDS011;3788;49.902;8.590;2023-02-04T03:36:43;11.77;;;3.40;;
7493;SDS011;3788;49.902;8.590;2023-02-04T03:39:10;6.63;;;2.73;;
7493;SDS011;3788;49.902;8.590;2023-02-04T03:41:36;8.20;;;2.30;;
7493;SDS011;3788;49.902;8.590;2023-02-04T03:44:03;7.23;;;2.80;;
7493;SDS011;3788;49.902;8.590;2023-02-04T03:46:30;9.47;;;3.00;;
7493;SDS011;3788;49.902;8.590;2023-02-04T03:48:56;8.83;;;3.10;;
7493;SDS011;3788;49.902;8.590;2023-02-04T03:51:24;9.23;;;2.97;;
7493;SDS011;3788;49.902;8.590;2023-02-04T03:53:51;11.17;;;2.53;;
7493;SDS011;3788;49.902;8.590;2023-02-04T03:56:18;9.47;;;2.90;;
7493;SDS011;3788;49.902;8.590;2023-02-04T03:58:44;8.07;;;3.10;;
7493;SDS011;3788;49.902;8.590;2023-02-04T04:01:11;7.50;;;2.87;;
7493;SDS011;3788;49.902;8.590;2023-02-04T04:03:38;8.80;;;2.50;;
7493;SDS011;3788;49.902;8.590;2023-02-04T04:06:04;11.50;;;3.10;;
7493;SDS011;3788;49.902;8.590;2023-02-04T04:08:35;8.60;;;2.80;;
7493;SDS011;3788;49.902;8.590;2023-02-04T04:11:02;6.37;;;2.43;;
7493;SDS011;3788;49.902;8.590;2023-02-04T04:13:29;6.50;;;2.37;;
7493;SDS011;3788;49.902;8.590;2023-02-04T04:15:55;6.07;;;2.43;;
7493;SDS011;3788;49.902;8.590;2023-02-04T04:18:22;4.83;;;2.30;;
7493;SDS011;3788;49.902;8.590;2023-02-04T04:20:49;7.57;;;2.83;;
7493;SDS011;3788;49.902;8.590;2023-02-04T04:23:15;8.67;;;3.53;;
7493;SDS011;3788;49.902;8.590;2023-02-04T04:25:43;10.70;;;3.20;;
7493;SDS011;3788;49.902;8.590;2023-02-04T04:28:10;5.13;;;3.00;;
7493;SDS011;3788;49.902;8.590;2023-02-04T04:30:37;10.07;;;2.30;;
7493;SDS011;3788;49.902;8.590;2023-02-04T04:33:03;6.07;;;2.40;;
7493;SDS011;3788;49.902;8.590;2023-02-04T04:35:30;6.50;;;2.93;;
7493;SDS011;3788;49.902;8.590;2023-02-04T04:37:58;8.30;;;2.90;;
7493;SDS011;3788;49.902;8.590;2023-02-04T04:40:25;5.13;;;2.10;;
7493;SDS011;3788;49.902;8.590;2023-02-04T04:42:53;8.03;;;2.83;;
7493;SDS011;3788;49.902;8.590;2023-02-04T04:45:20;5.67;;;2.60;;
7493;SDS011;3788;49.902;8.590;2023-02-04T04:47:46;7.07;;;2.60;;
7493;SDS011;3788;49.902;8.590;2023-02-04T04:50:13;6.83;;;3.43;;
7493;SDS011;3788;49.902;8.590;2023-02-04T04:52:40;7.13;;;2.63;;
7493;SDS011;3788;49.902;8.590;2023-02-04T04:55:07;9.60;;;2.97;;
7493;SDS011;3788;49.902;8.590;2023-02-04T04:57:34;4.27;;;2.33;;
7493;SDS011;3788;49.902;8.590;2023-02-04T05:00:02;6.83;;;2.50;;
7493;SDS011;3788;49.902;8.590;2023-02-04T05:02:30;6.93;;;2.90;;
7493;SDS011;3788;49.902;8.590;2023-02-04T05:04:56;5.93;;;2.57;;
7493;SDS011;3788;49.902;8.590;2023-02-04T05:07:23;3.67;;;2.17;;
7493;SDS011;3788;49.902;8.590;2023-02-04T05:09:50;5.90;;;2.50;;
7493;SDS011;3788;49.902;8.590;2023-02-04T05:12:16;11.50;;;2.67;;
7493;SDS011;3788;49.902;8.590;2023-02-04T05:14:43;3.87;;;2.40;;
7493;SDS011;3788;49.902;8.590;2023-02-04T05:17:11;4.30;;;2.20;;
7493;SDS011;3788;49.902;8.590;2023-02-04T05:19:38;4.30;;;2.37;;
7493;SDS011;3788;49.902;8.590;2023-02-04T05:22:05;6.20;;;2.80;;
7493;SDS011;3788;49.902;8.590;2023-02-04T05:24:31;5.37;;;3.30;;
7493;SDS011;3788;49.902;8.590;2023-02-04T05:26:58;6.50;;;2.73;;
7493;SDS011;3788;49.902;8.590;2023-02-04T05:29:25;8.77;;;3.43;;
7493;SDS011;3788;49.902;8.590;2023-02-04T05:31:51;7.30;;;3.53;;
7493;SDS011;3788;49.902;8.590;2023-02-04T05:34:20;9.00;;;3.37;;
7493;SDS011;3788;49.902;8.590;2023-02-04T05:36:46;8.17;;;2.80;;
7493;SDS011;3788;49.902;8.590;2023-02-04T05:39:13;7.23;;;2.20;;
7493;SDS011;3788;49.902;8.590;2023-02-04T05:41:40;5.67;;;2.37;;
7493;SDS011;3788;49.902;8.590;2023-02-04T05:44:06;4.60;;;2.50;;
7493;SDS011;3788;49.902;8.590;2023-02-04T05:46:33;3.80;;;1.87;;
7493;SDS011;3788;49.902;8.590;2023-02-04T05:49:00;5.17;;;2.03;;
7493;SDS011;3788;49.902;8.590;2023-02-04T05:51:28;4.57;;;1.90;;
7493;SDS011;3788;49.902;8.590;2023-02-04T05:53:55;4.43;;;2.20;;
7493;SDS011;3788;49.902;8.590;2023-02-04T05:56:22;7.90;;;2.60;;
7493;SDS011;3788;49.902;8.590;2023-02-04T05:58:49;3.87;;;2.10;;
7493;SDS011;3788;49.902;8.590;2023-02-04T06:01:17;8.07;;;2.50;;
7493;SDS011;3788;49.902;8.590;2023-02-04T06:03:43;3.33;;;1.90;;
7493;SDS011;3788;49.902;8.590;2023-02-04T06:06:10;5.53;;;2.27;;
7493;SDS011;3788;49.902;8.590;2023-02-04T06:08:38;6.70;;;2.70;;
7493;SDS011;3788;49.902;8.590;2023-02-04T06:11:05;5.87;;;2.67;;
7493;SDS011;3788;49.902;8.590;2023-02-04T06:13:31;6.77;;;2.57;;
7493;SDS011;3788;49.902;8.590;2023-02-04T06:15:58;7.73;;;2.87;;
7493;SDS011;3788;49.902;8.590;2023-02-04T06:18:25;6.20;;;2.73;;
7493;SDS011;3788;49.902;8.590;2023-02-04T06:20:51;4.83;;;2.57;;
7493;SDS011;3788;49.902;8.590;2023-02-04T06:23:18;4.13;;;2.57;;
7493;SDS011;3788;49.902;8.590;2023-02-04T06:25:46;4.07;;;2.47;;
7493;SDS011;3788;49.902;8.590;2023-02-04T06:28:14;4.80;;;2.90;;
7493;SDS011;3788;49.902;8.590;2023-02-04T06:30:41;6.07;;;2.40;;
7493;SDS011;3788;49.902;8.590;2023-02-04T06:33:08;6.83;;;3.10;;
7493;SDS011;3788;49.902;8.590;2023-02-04T06:35:34;3.80;;;2.20;;
7493;SDS011;3788;49.902;8.590;2023-02-04T06:38:01;3.23;;;2.03;;
7493;SDS011;3788;49.902;8.590;2023-02-04T06:40:28;5.60;;;2.80;;
7493;SDS011;3788;49.902;8.590;2023-02-04T06:42:56;4.70;;;1.93;;
7493;SDS011;3788;49.902;8.590;2023-02-04T06:45:22;4.10;;;2.30;;
7493;SDS011;3788;49.902;8.590;2023-02-04T06:47:49;5.50;;;2.50;;
7493;SDS011;3788;49.902;8.590;2023-02-04T06:50:16;4.67;;;2.30;;
7493;SDS011;3788;49.902;8.590;2023-02-04T06:52:43;8.37;;;2.80;;
7493;SDS011;3788;49.902;8.590;2023-02-04T06:55:10;8.87;;;3.27;;
7493;SDS011;3788;49.902;8.590;2023-02-04T06:57:37;7.00;;;2.77;;
7493;SDS011;3788;49.902;8.590;2023-02-04T07:00:06;6.50;;;3.10;;
7493;SDS011;3788;49.902;8.590;2023-02-04T07:02:35;6.57;;;2.67;;
7493;SDS011;3788;49.902;8.590;2023-02-04T07:05:03;6.30;;;2.70;;
7493;SDS011;3788;49.902;8.590;2023-02-04T07:07:30;7.63;;;3.50;;
7493;SDS011;3788;49.902;8.590;2023-02-04T07:09:57;9.50;;;3.07;;
7493;SDS011;3788;49.902;8.590;2023-02-04T07:12:24;9.40;;;3.50;;
7493;SDS011;3788;49.902;8.590;2023-02-04T07:14:50;10.20;;;4.20;;
7493;SDS011;3788;49.902;8.590;2023-02-04T07:17:18;11.40;;;5.10;;
7493;SDS011;3788;49.902;8.590;2023-02-04T07:19:45;10.53;;;4.47;;
7493;SDS011;3788;49.902;8.590;2023-02-04T07:22:12;6.73;;;4.20;;
7493;SDS011;3788;49.902;8.590;2023-02-04T07:24:38;11.10;;;4.20;;
7493;SDS011;3788;49.902;8.590;2023-02-04T07:27:05;9.63;;;4.40;;
7493;SDS011;3788;49.902;8.590;2023-02-04T07:29:32;11.80;;;4.57;;
7493;SDS011;3788;49.902;8.590;2023-02-04T07:31:58;7.53;;;3.43;;
7493;SDS011;3788;49.902;8.590;2023-02-04T07:34:27;8.30;;;4.00;;
7493;SDS011;3788;49.902;8.590;2023-02-04T07:36:53;10.23;;;3.70;;
7493;SDS011;3788;49.902;8.590;2023-02-04T07:39:20;11.13;;;3.90;;
7493;SDS011;3788;49.902;8.590;2023-02-04T07:41:47;10.33;;;3.10;;
7493;SDS011;3788;49.902;8.590;2023-02-04T07:44:13;10.83;;;3.60;;
7493;SDS011;3788;49.902;8.590;2023-02-04T07:46:40;9.57;;;3.20;;
7493;SDS011;3788;49.902;8.590;2023-02-04T07:49:07;10.73;;;3.77;;
7493;SDS011;3788;49.902;8.590;2023-02-04T07:51:35;9.40;;;3.00;;
7493;SDS011;3788;49.902;8.590;2023-02-04T07:54:01;6.37;;;2.70;;
7493;SDS011;3788;49.902;8.590;2023-02-04T07:56:28;5.80;;;2.50;;
7493;SDS011;3788;49.902;8.590;2023-02-04T07:58:55;6.23;;;2.63;;
7493;SDS011;3788;49.902;8.590;2023-02-04T08:01:22;6.73;;;2.83;;
7493;SDS011;3788;49.902;8.590;2023-02-04T08:03:48;6.00;;;2.50;;
7493;SDS011;3788;49.902;8.590;2023-02-04T08:06:15;7.63;;;2.43;;
7493;SDS011;3788;49.902;8.590;2023-02-04T08:08:43;5.03;;;2.40;;
7493;SDS011;3788;49.902;8.590;2023-02-04T08:11:10;4.67;;;2.50;;
7493;SDS011;3788;49.902;8.590;2023-02-04T08:13:37;9.80;;;4.13;;
7493;SDS011;3788;49.902;8.590;2023-02-04T08:16:04;9.33;;;2.80;;
7493;SDS011;3788;49.902;8.590;2023-02-04T08:18:31;12.67;;;2.93;;
7493;SDS011;3788;49.902;8.590;2023-02-04T08:20:58;7.40;;;3.07;;
7493;SDS011;3788;49.902;8.590;2023-02-04T08:23:26;9.60;;;3.10;;
7493;SDS011;3788;49.902;8.590;2023-02-04T08:25:54;11.07;;;3.57;;
7493;SDS011;3788;49.902;8.590;2023-02-04T08:28:20;8.80;;;3.10;;
7493;SDS011;3788;49.902;8.590;2023-02-04T08:30:47;10.77;;;3.13;;
7493;SDS011;3788;49.902;8.590;2023-02-04T08:33:14;9.90;;;2.90;;
7493;SDS011;3788;49.902;8.590;2023-02-04T08:35:41;6.97;;;3.30;;
7493;SDS011;3788;49.902;8.590;2023-02-04T08:38:08;8.13;;;3.07;;
7493;SDS011;3788;49.902;8.590;2023-02-04T08:40:34;7.20;;;2.77;;
7493;SDS011;3788;49.902;8.590;2023-02-04T08:43:03;4.27;;;2.20;;
7493;SDS011;3788;49.902;8.590;2023-02-04T08:45:29;8.30;;;2.40;;
7493;SDS011;3788;49.902;8.590;2023-02-04T08:47:56;9.70;;;2.37;;
7493;SDS011;3788;49.902;8.590;2023-02-04T08:50:23;5.87;;;2.23;;
7493;SDS011;3788;49.902;8.590;2023-02-04T08:52:50;7.23;;;2.50;;
7493;SDS011;3788;49.902;8.590;2023-02-04T08:55:17;9.73;;;2.70;;
7493;SDS011;3788;49.902;8.590;2023-02-04T08:57:44;8.83;;;3.13;;
7493;SDS011;3788;49.902;8.590;2023-02-04T09:00:12;8.13;;;2.70;;
7493;SDS011;3788;49.902;8.590;2023-02-04T09:02:40;9.67;;;3.33;;
7493;SDS011;3788;49.902;8.590;2023-02-04T09:05:06;9.30;;;3.00;;
7493;SDS011;3788;49.902;8.590;2023-02-04T09:07:33;10.30;;;3.03;;
7493;SDS011;3788;49.902;8.590;2023-02-04T09:10:00;6.33;;;2.87;;
7493;SDS011;3788;49.902;8.590;2023-02-04T09:12:27;7.23;;;2.37;;
7493;SDS011;3788;49.902;8.590;2023-02-04T09:14:53;7.10;;;2.70;;
7493;SDS011;3788;49.902;8.590;2023-02-04T09:17:21;7.33;;;2.60;;
7493;SDS011;3788;49.902;8.590;2023-02-04T09:19:48;7.70;;;2.50;;
7493;SDS011;3788;49.902;8.590;2023-02-04T09:22:14;6.23;;;2.50;;
7493;SDS011;3788;49.902;8.590;2023-02-04T09:24:41;6.50;;;3.00;;
7493;SDS011;3788;49.902;8.590;2023-02-04T09:27:08;5.60;;;2.17;;
7493;SDS011;3788;49.902;8.590;2023-02-04T09:29:35;5.80;;;2.33;;
7493;SDS011;3788;49.902;8.590;2023-02-04T09:32:02;10.80;;;2.07;;
7493;SDS011;3788;49.902;8.590;2023-02-04T09:34:30;4.37;;;1.90;;
7493;SDS011;3788;49.902;8.590;2023-02-04T09:36:57;5.37;;;2.23;;
7493;SDS011;3788;49.902;8.590;2023-02-04T09:39:23;8.07;;;2.90;;
7493;SDS011;3788;49.902;8.590;2023-02-04T09:41:50;8.13;;;2.07;;
7493;SDS011;3788;49.902;8.590;2023-02-04T09:44:20;5.67;;;1.70;;
7493;SDS011;3788;49.902;8.590;2023-02-04T09:46:50;6.53;;;2.27;;
7493;SDS011;3788;49.902;8.590;2023-02-04T09:49:18;8.63;;;1.87;;
7493;SDS011;3788;49.902;8.590;2023-02-04T09:51:47;6.13;;;2.07;;
7493;SDS011;3788;49.902;8.590;2023-02-04T09:54:15;9.90;;;2.53;;
7493;SDS011;3788;49.902;8.590;2023-02-04T09:56:44;5.60;;;2.10;;
7493;SDS011;3788;49.902;8.590;2023-02-04T09:59:11;7.77;;;1.87;;
7493;SDS011;3788;49.902;8.590;2023-02-04T10:01:39;12.97;;;3.00;;
7493;SDS011;3788;49.902;8.590;2023-02-04T10:04:07;6.07;;;2.73;;
7493;SDS011;3788;49.902;8.590;2023-02-04T10:06:37;5.13;;;2.03;;
7493;SDS011;3788;49.902;8.590;2023-02-04T10:09:07;6.77;;;1.90;;
7493;SDS011;3788;49.902;8.590;2023-02-04T10:11:36;7.03;;;2.47;;
7493;SDS011;3788;49.902;8.590;2023-02-04T10:14:05;7.07;;;1.73;;
7493;SDS011;3788;49.902;8.590;2023-02-04T10:16:38;5.70;;;2.00;;
7493;SDS011;3788;49.902;8.590;2023-02-04T10:19:10;3.70;;;1.50;;
7493;SDS011;3788;49.902;8.590;2023-02-04T10:21:39;8.30;;;2.80;;
7493;SDS011;3788;49.902;8.590;2023-02-04T10:24:11;5.23;;;2.33;;
7493;SDS011;3788;49.902;8.590;2023-02-04T10:26:41;8.30;;;2.00;;
7493;SDS011;3788;49.902;8.590;2023-02-04T10:29:11;6.77;;;2.30;;
7493;SDS011;3788;49.902;8.590;2023-02-04T10:31:40;6.27;;;1.80;;
7493;SDS011;3788;49.902;8.590;2023-02-04T10:34:10;5.37;;;2.10;;
7493;SDS011;3788;49.902;8.590;2023-02-04T10:36:39;10.00;;;2.60;;
7493;SDS011;3788;49.902;8.590;2023-02-04T10:39:11;5.30;;;1.67;;
7493;SDS011;3788;49.902;8.590;2023-02-04T10:41:43;7.10;;;3.93;;
7493;SDS011;3788;49.902;8.590;2023-02-04T10:44:12;8.13;;;3.27;;
7493;SDS011;3788;49.902;8.590;2023-02-04T10:46:39;9.67;;;2.70;;
7493;SDS011;3788;49.902;8.590;2023-02-04T10:49:14;6.20;;;2.40;;
7493;SDS011;3788;49.902;8.590;2023-02-04T10:51:42;4.13;;;1.80;;
7493;SDS011;3788;49.902;8.590;2023-02-04T10:54:11;7.23;;;2.00;;
7493;SDS011;3788;49.902;8.590;2023-02-04T10:56:59;2.87;;;1.60;;
7493;SDS011;3788;49.902;8.590;2023-02-04T10:59:32;6.70;;;1.77;;
7493;SDS011;3788;49.902;8.590;2023-02-04T11:02:00;7.60;;;1.83;;
7493;SDS011;3788;49.902;8.590;2023-02-04T11:04:38;7.50;;;2.87;;
7493;SDS011;3788;49.902;8.590;2023-02-04T11:07:07;5.47;;;2.00;;
7493;SDS011;3788;49.902;8.590;2023-02-04T11:09:40;6.67;;;2.30;;
7493;SDS011;3788;49.902;8.590;2023-02-04T11:12:17;4.03;;;1.90;;
7493;SDS011;3788;49.902;8.590;2023-02-04T11:14:53;4.97;;;1.70;;
7493;SDS011;3788;49.902;8.590;2023-02-04T11:17:21;8.27;;;3.10;;
7493;SDS011;3788;49.902;8.590;2023-02-04T11:19:55;7.83;;;2.83;;
7493;SDS011;3788;49.902;8.590;2023-02-04T11:22:42;4.67;;;1.67;;
7493;SDS011;3788;49.902;8.590;2023-02-04T11:27:58;6.33;;;1.90;;
7493;SDS011;3788;49.902;8.590;2023-02-04T11:30:29;4.63;;;1.60;;
7493;SDS011;3788;49.902;8.590;2023-02-04T11:32:59;4.23;;;1.80;;
7493;SDS011;3788;49.902;8.590;2023-02-04T11:35:28;4.53;;;2.07;;
7493;SDS011;3788;49.902;8.590;2023-02-04T11:37:55;7.70;;;1.87;;
7493;SDS011;3788;49.902;8.590;2023-02-04T11:40:27;5.03;;;2.13;;
7493;SDS011;3788;49.902;8.590;2023-02-04T11:42:58;4.97;;;2.87;;
7493;SDS011;3788;49.902;8.590;2023-02-04T11:45:27;8.73;;;2.10;;
7493;SDS011;3788;49.902;8.590;2023-02-04T11:47:56;4.40;;;2.00;;
7493;SDS011;3788;49.902;8.590;2023-02-04T11:50:26;6.73;;;2.43;;
7493;SDS011;3788;49.902;8.590;2023-02-04T11:52:54;9.20;;;2.20;;
7493;SDS011;3788;49.902;8.590;2023-02-04T11:55:22;6.60;;;1.90;;
7493;SDS011;3788;49.902;8.590;2023-02-04T11:57:50;4.67;;;1.87;;
7493;SDS011;3788;49.902;8.590;2023-02-04T12:00:20;4.33;;;1.47;;
7493;SDS011;3788;49.902;8.590;2023-02-04T12:02:49;5.33;;;1.80;;
7493;SDS011;3788;49.902;8.590;2023-02-04T12:05:20;6.53;;;1.80;;
7493;SDS011;3788;49.902;8.590;2023-02-04T12:07:47;5.37;;;2.53;;
7493;SDS011;3788;49.902;8.590;2023-02-04T12:10:22;7.63;;;2.03;;
7493;SDS011;3788;49.902;8.590;2023-02-04T12:12:51;6.60;;;2.07;;
7493;SDS011;3788;49.902;8.590;2023-02-04T12:15:23;7.53;;;1.93;;
7493;SDS011;3788;49.902;8.590;2023-02-04T12:18:00;8.97;;;2.00;;
7493;SDS011;3788;49.902;8.590;2023-02-04T12:20:28;8.90;;;2.47;;
7493;SDS011;3788;49.902;8.590;2023-02-04T12:22:55;4.43;;;1.70;;
7493;SDS011;3788;49.902;8.590;2023-02-04T12:25:22;4.67;;;1.90;;
7493;SDS011;3788;49.902;8.590;2023-02-04T12:27:50;6.10;;;2.17;;
7493;SDS011;3788;49.902;8.590;2023-02-04T12:30:18;5.47;;;2.00;;
7493;SDS011;3788;49.902;8.590;2023-02-04T12:32:47;6.37;;;1.90;;
7493;SDS011;3788;49.902;8.590;2023-02-04T12:35:14;7.07;;;2.50;;
7493;SDS011;3788;49.902;8.590;2023-02-04T12:37:41;7.10;;;1.87;;
7493;SDS011;3788;49.902;8.590;2023-02-04T12:40:09;4.97;;;1.93;;
7493;SDS011;3788;49.902;8.590;2023-02-04T12:42:39;4.63;;;1.80;;
7493;SDS011;3788;49.902;8.590;2023-02-04T12:45:06;3.97;;;1.87;;
7493;SDS011;3788;49.902;8.590;2023-02-04T12:47:33;5.37;;;1.80;;
7493;SDS011;3788;49.902;8.590;2023-02-04T12:50:02;3.87;;;1.53;;
7493;SDS011;3788;49.902;8.590;2023-02-04T12:52:29;1.70;;;1.07;;
7493;SDS011;3788;49.902;8.590;2023-02-04T12:54:55;3.13;;;1.23;;
7493;SDS011;3788;49.902;8.590;2023-02-04T12:57:24;3.97;;;1.60;;
7493;SDS011;3788;49.902;8.590;2023-02-04T12:59:50;2.37;;;1.20;;
7493;SDS011;3788;49.902;8.590;2023-02-04T13:02:17;4.60;;;1.63;;
7493;SDS011;3788;49.902;8.590;2023-02-04T13:04:44;3.63;;;1.67;;
7493;SDS011;3788;49.902;8.590;2023-02-04T13:07:12;3.80;;;1.47;;
7493;SDS011;3788;49.902;8.590;2023-02-04T13:09:38;4.57;;;1.70;;
7493;SDS011;3788;49.902;8.590;2023-02-04T13:12:06;5.07;;;1.77;;
7493;SDS011;3788;49.902;8.590;2023-02-04T13:14:32;5.07;;;1.67;;
7493;SDS011;3788;49.902;8.590;2023-02-04T13:16:59;3.73;;;1.50;;
7493;SDS011;3788;49.902;8.590;2023-02-04T13:19:26;8.27;;;2.00;;
7493;SDS011;3788;49.902;8.590;2023-02-04T13:21:52;5.50;;;2.07;;
7493;SDS011;3788;49.902;8.590;2023-02-04T13:24:20;4.83;;;2.03;;
7493;SDS011;3788;49.902;8.590;2023-02-04T13:26:47;6.47;;;1.70;;
7493;SDS011;3788;49.902;8.590;2023-02-04T13:29:14;5.43;;;1.83;;
7493;SDS011;3788;49.902;8.590;2023-02-04T13:31:40;4.13;;;1.60;;
7493;SDS011;3788;49.902;8.590;2023-02-04T13:34:07;2.73;;;1.40;;
7493;SDS011;3788;49.902;8.590;2023-02-04T13:36:34;4.67;;;1.50;;
7493;SDS011;3788;49.902;8.590;2023-02-04T13:39:00;3.93;;;1.60;;
7493;SDS011;3788;49.902;8.590;2023-02-04T13:41:29;3.33;;;1.40;;
7493;SDS011;3788;49.902;8.590;2023-02-04T13:43:55;6.73;;;1.90;;
7493;SDS011;3788;49.902;8.590;2023-02-04T13:46:24;3.60;;;1.40;;
7493;SDS011;3788;49.902;8.590;2023-02-04T13:48:51;7.53;;;2.33;;
7493;SDS011;3788;49.902;8.590;2023-02-04T13:51:18;4.13;;;1.30;;
7493;SDS011;3788;49.902;8.590;2023-02-04T13:53:47;4.03;;;1.40;;
7493;SDS011;3788;49.902;8.590;2023-02-04T13:56:14;6.27;;;1.63;;
7493;SDS011;3788;49.902;8.590;2023-02-04T13:58:46;6.83;;;1.57;;
7493;SDS011;3788;49.902;8.590;2023-02-04T14:01:13;7.23;;;1.90;;
7493;SDS011;3788;49.902;8.590;2023-02-04T14:03:40;9.93;;;1.73;;
7493;SDS011;3788;49.902;8.590;2023-02-04T14:06:07;5.00;;;1.67;;
7493;SDS011;3788;49.902;8.590;2023-02-04T14:08:35;9.13;;;2.20;;
7493;SDS011;3788;49.902;8.590;2023-02-04T14:11:03;3.53;;;1.50;;
7493;SDS011;3788;49.902;8.590;2023-02-04T14:13:31;6.37;;;1.40;;
7493;SDS011;3788;49.902;8.590;2023-02-04T14:15:59;4.27;;;1.50;;
7493;SDS011;3788;49.902;8.590;2023-02-04T14:18:25;2.97;;;1.50;;
7493;SDS011;3788;49.902;8.590;2023-02-04T14:20:52;3.10;;;1.70;;
7493;SDS011;3788;49.902;8.590;2023-02-04T14:23:19;4.37;;;1.57;;
7493;SDS011;3788;49.902;8.590;2023-02-04T14:25:45;3.57;;;1.50;;
7493;SDS011;3788;49.902;8.590;2023-02-04T14:28:12;6.20;;;2.07;;
7493;SDS011;3788;49.902;8.590;2023-02-04T14:30:39;1.87;;;1.30;;
7493;SDS011;3788;49.902;8.590;2023-02-04T14:33:07;3.53;;;1.53;;
7493;SDS011;3788;49.902;8.590;2023-02-04T14:35:34;7.60;;;1.97;;
7493;SDS011;3788;49.902;8.590;2023-02-04T14:38:01;3.40;;;1.40;;
7493;SDS011;3788;49.902;8.590;2023-02-04T14:40:28;3.80;;;1.70;;
7493;SDS011;3788;49.902;8.590;2023-02-04T14:42:55;4.00;;;2.23;;
7493;SDS011;3788;49.902;8.590;2023-02-04T14:45:22;4.87;;;1.60;;
7493;SDS011;3788;49.902;8.590;2023-02-04T14:47:48;3.30;;;1.50;;
7493;SDS011;3788;49.902;8.590;2023-02-04T14:50:18;6.20;;;1.70;;
7493;SDS011;3788;49.902;8.590;2023-02-04T14:52:50;5.23;;;1.70;;
7493;SDS011;3788;49.902;8.590;2023-02-04T14:55:17;3.73;;;1.43;;
7493;SDS011;3788;49.902;8.590;2023-02-04T14:57:44;4.83;;;1.60;;
7493;SDS011;3788;49.902;8.590;2023-02-04T15:00:11;4.30;;;1.47;;
7493;SDS011;3788;49.902;8.590;2023-02-04T15:02:39;3.80;;;1.60;;
7493;SDS011;3788;49.902;8.590;2023-02-04T15:05:06;7.00;;;1.90;;
7493;SDS011;3788;49.902;8.590;2023-02-04T15:07:35;5.10;;;1.90;;
7493;SDS011;3788;49.902;8.590;2023-02-04T15:10:03;4.50;;;1.57;;
7493;SDS011;3788;49.902;8.590;2023-02-04T15:12:30;6.57;;;1.90;;
7493;SDS011;3788;49.902;8.590;2023-02-04T15:14:57;3.40;;;1.70;;
7493;SDS011;3788;49.902;8.590;2023-02-04T15:17:24;3.70;;;1.40;;
7493;SDS011;3788;49.902;8.590;2023-02-04T15:19:51;7.13;;;2.13;;
7493;SDS011;3788;49.902;8.590;2023-02-04T15:22:17;3.47;;;1.40;;